Time;durP1;ratioP1;P1;durP2;ratioP2;P2;SDS_P1;SDS_P2;PMS_P1;PMS_P2;Temp;Humidity;BMP_temperature;BMP_pressure;BME280_temperature;BME280_humidity;BME280_pressure;Samples;Min_cycle;Max_cycle;Signal;HPM_P1;HPM_P2
2023/01/23 00:01:21;;;;;;;0.70;0.70;;;-4.40;99.90;;;;;;5116794;28;20199;-72
2023/01/23 00:03:46;;;;;;;0.77;0.77;;;-4.40;99.90;;;;;;5117744;28;20207;-71
2023/01/23 00:06:15;;;;;;;1.30;1.25;;;-4.40;99.90;;;;;;5116897;28;20199;-71
2023/01/23 00:08:42;;;;;;;0.70;0.70;;;-4.30;99.90;;;;;;5117890;28;20210;-72
2023/01/23 00:11:10;;;;;;;0.80;0.80;;;-4.30;99.90;;;;;;5116774;28;20199;-70
2023/01/23 00:13:36;;;;;;;0.70;0.70;;;-4.30;99.90;;;;;;5116162;28;20574;-71
2023/01/23 00:16:11;;;;;;;1.58;1.48;;;-4.20;99.90;;;;;;5117327;28;20191;-71
2023/01/23 00:18:37;;;;;;;0.80;0.80;;;-4.20;99.90;;;;;;5116654;28;20195;-72
2023/01/23 00:21:09;;;;;;;0.68;0.68;;;-4.10;99.90;;;;;;5117420;28;20194;-72
2023/01/23 00:23:36;;;;;;;2.45;2.28;;;-4.10;99.90;;;;;;5115842;28;20738;-71
2023/01/23 00:26:07;;;;;;;0.80;0.80;;;-4.20;99.90;;;;;;5118162;28;20659;-72
2023/01/23 00:28:33;;;;;;;0.80;0.80;;;-4.10;99.90;;;;;;5117430;28;20671;-72
2023/01/23 00:31:20;;;;;;;0.68;0.68;;;-4.10;99.90;;;;;;5117170;28;20697;-72
2023/01/23 00:33:46;;;;;;;0.80;0.80;;;-4.10;99.90;;;;;;5117203;28;20203;-72
2023/01/23 00:36:13;;;;;;;0.70;0.70;;;-4.20;99.90;;;;;;5117477;28;20187;-72
2023/01/23 00:38:43;;;;;;;0.73;0.73;;;-4.20;99.90;;;;;;5117179;28;20574;-72
2023/01/23 00:41:08;;;;;;;0.77;0.77;;;-4.20;99.90;;;;;;5117312;28;20267;-72
2023/01/23 00:43:34;;;;;;;0.80;0.80;;;-4.20;99.90;;;;;;5116988;28;20226;-73
2023/01/23 00:46:00;;;;;;;0.80;0.80;;;-4.30;99.90;;;;;;5116068;28;20661;-72
2023/01/23 00:48:26;;;;;;;0.80;0.80;;;-4.20;99.90;;;;;;5117205;28;20198;-73
2023/01/23 00:50:52;;;;;;;0.80;0.80;;;-4.20;99.90;;;;;;5117200;28;20653;-72
2023/01/23 00:53:18;;;;;;;0.80;0.80;;;-4.20;99.90;;;;;;5116152;28;20196;-73
2023/01/23 00:55:44;;;;;;;0.77;0.77;;;-4.10;99.90;;;;;;5117064;28;20534;-72
2023/01/23 00:58:10;;;;;;;0.80;0.80;;;-4.10;99.90;;;;;;5116865;28;20188;-73
2023/01/23 01:00:37;;;;;;;0.70;0.70;;;-4.10;99.90;;;;;;5116784;28;20602;-71
2023/01/23 01:03:04;;;;;;;0.73;0.73;;;-4.10;99.90;;;;;;5116645;28;20553;-72
2023/01/23 01:05:30;;;;;;;0.80;0.80;;;-4.10;99.90;;;;;;5115833;28;20230;-72
2023/01/23 01:07:55;;;;;;;0.80;0.80;;;-4.10;99.90;;;;;;5116726;28;20677;-72
2023/01/23 01:10:21;;;;;;;0.80;0.80;;;-4.10;99.90;;;;;;5114292;28;20223;-73
2023/01/23 01:12:48;;;;;;;0.80;0.80;;;-4.00;99.90;;;;;;5116634;28;20192;-72
2023/01/23 01:15:14;;;;;;;0.70;0.70;;;-4.00;99.90;;;;;;5115246;28;20290;-72
2023/01/23 01:17:40;;;;;;;0.80;0.80;;;-3.90;99.90;;;;;;5114609;28;20286;-71
2023/01/23 01:20:07;;;;;;;0.80;0.80;;;-4.00;99.90;;;;;;5116439;28;20186;-72
2023/01/23 01:22:33;;;;;;;0.70;0.70;;;-4.00;99.90;;;;;;5116158;28;20188;-72
2023/01/23 01:24:59;;;;;;;0.70;0.70;;;-3.90;99.90;;;;;;5116491;28;20198;-73
2023/01/23 01:27:24;;;;;;;0.80;0.80;;;-4.00;99.90;;;;;;5116447;28;20244;-72
2023/01/23 01:29:50;;;;;;;0.70;0.70;;;-4.00;99.90;;;;;;5115088;28;20199;-73
2023/01/23 01:32:16;;;;;;;0.77;0.77;;;-4.00;99.90;;;;;;5114909;28;20195;-72
2023/01/23 01:34:42;;;;;;;0.70;0.70;;;-4.00;99.90;;;;;;5115667;28;20214;-72
2023/01/23 01:37:07;;;;;;;0.77;0.77;;;-4.00;99.90;;;;;;5116021;28;20666;-71
2023/01/23 01:39:33;;;;;;;0.70;0.70;;;-3.90;99.90;;;;;;5115821;28;20188;-72
2023/01/23 01:41:59;;;;;;;0.73;0.73;;;-3.90;99.90;;;;;;5115732;28;20719;-72
2023/01/23 01:44:25;;;;;;;0.80;0.80;;;-3.90;99.90;;;;;;5115126;28;20274;-73
2023/01/23 01:46:51;;;;;;;0.80;0.80;;;-4.00;99.90;;;;;;5116210;28;20184;-73
2023/01/23 01:49:29;;;;;;;0.75;0.75;;;-4.00;99.90;;;;;;5115962;28;20243;-72
2023/01/23 01:51:59;;;;;;;0.70;0.70;;;-4.00;99.90;;;;;;5115538;28;20274;-72
2023/01/23 01:54:40;;;;;;;0.77;0.77;;;-4.00;99.90;;;;;;5115330;27;20203;-72
2023/01/23 01:57:15;;;;;;;0.70;0.70;;;-4.00;99.90;;;;;;5114502;28;20207;-71
2023/01/23 01:59:48;;;;;;;0.60;0.60;;;-4.10;99.90;;;;;;5115431;28;20191;-72
2023/01/23 02:02:33;;;;;;;0.70;0.70;;;-4.00;99.90;;;;;;5123082;22;20207;-77
2023/01/23 02:05:27;;;;;;;0.80;0.80;;;-4.00;99.90;;;;;;5014530;28;20618;-77
2023/01/23 02:08:12;;;;;;;0.70;0.70;;;-4.00;99.90;;;;;;5012120;28;20514;-77
2023/01/23 02:10:39;;;;;;;0.80;0.80;;;-4.00;99.90;;;;;;5014448;28;20206;-76
2023/01/23 02:17:02;;;;;;;0.70;0.70;;;-4.00;99.90;;;;;;4982463;28;20212;-80
2023/01/23 02:20:07;;;;;;;0.65;0.65;;;-4.00;99.90;;;;;;4941665;29;20234;-76
2023/01/23 02:23:00;;;;;;;0.80;0.80;;;-4.00;99.90;;;;;;4965202;28;20200;-77
2023/01/23 02:25:44;;;;;;;0.70;0.70;;;-4.00;99.90;;;;;;4957401;28;20676;-77
2023/01/23 02:28:12;;;;;;;0.70;0.70;;;-4.00;99.90;;;;;;4957210;28;20220;-78
2023/01/23 02:30:39;;;;;;;0.70;0.70;;;-3.90;99.90;;;;;;4973174;28;20232;-78
2023/01/23 02:33:20;;;;;;;0.70;0.70;;;-3.90;99.90;;;;;;4972960;28;20200;-77
2023/01/23 02:35:46;;;;;;;1.08;1.08;;;-3.80;99.90;;;;;;4957130;28;20212;-77
2023/01/23 02:38:12;;;;;;;0.70;0.70;;;-3.80;99.90;;;;;;4973830;28;20350;-78
2023/01/23 02:44:27;;;;;;;0.63;0.63;;;-3.80;99.90;;;;;;4924076;28;20208;-76
2023/01/23 02:46:57;;;;;;;0.70;0.70;;;-3.80;99.90;;;;;;4973128;28;20211;-76
2023/01/23 02:49:22;;;;;;;0.70;0.70;;;-3.90;99.90;;;;;;4971902;28;20196;-77
2023/01/23 02:51:49;;;;;;;0.80;0.80;;;-3.80;99.90;;;;;;4964192;28;20243;-76
2023/01/23 02:54:17;;;;;;;0.70;0.70;;;-3.80;99.90;;;;;;5015227;28;20230;-76
2023/01/23 02:56:43;;;;;;;0.70;0.70;;;-3.80;99.90;;;;;;5033336;28;20205;-76
2023/01/23 03:01:54;;;;;;;0.65;0.65;;;-3.80;99.90;;;;;;5034340;28;20256;-77
2023/01/23 03:04:20;;;;;;;0.70;0.70;;;-3.80;99.90;;;;;;5034899;28;20718;-76
2023/01/23 03:06:46;;;;;;;0.90;0.90;;;-3.90;99.90;;;;;;5033052;28;20267;-76
2023/01/23 03:09:14;;;;;;;0.80;0.80;;;-4.00;99.90;;;;;;5032967;28;20284;-77
2023/01/23 03:11:45;;;;;;;0.80;0.80;;;-3.90;99.90;;;;;;5015207;28;20201;-76
2023/01/23 03:14:17;;;;;;;0.70;0.70;;;-4.00;99.90;;;;;;5013727;28;20594;-77
2023/01/23 03:16:45;;;;;;;0.80;0.80;;;-4.00;99.90;;;;;;5013954;28;20719;-77
2023/01/23 03:19:11;;;;;;;0.75;0.75;;;-4.00;99.90;;;;;;5020510;28;20202;-76
2023/01/23 03:21:39;;;;;;;0.80;0.80;;;-4.00;99.90;;;;;;5013348;28;20598;-76
2023/01/23 03:24:13;;;;;;;0.70;0.70;;;-4.00;99.90;;;;;;5012769;28;20257;-77
2023/01/23 03:26:43;;;;;;;0.80;0.80;;;-3.90;99.90;;;;;;5011223;28;20206;-76
2023/01/23 03:32:07;;;;;;;0.80;0.80;;;-4.00;99.90;;;;;;5013385;28;20230;-76
2023/01/23 03:34:33;;;;;;;0.70;0.70;;;-4.10;99.90;;;;;;5010966;28;20681;-76
2023/01/23 03:37:00;;;;;;;0.70;0.70;;;-4.10;99.90;;;;;;5013312;28;20656;-76
2023/01/23 03:42:17;;;;;;;0.80;0.80;;;-4.10;99.90;;;;;;5014251;28;20252;-76
2023/01/23 03:44:42;;;;;;;0.70;0.70;;;-4.10;99.90;;;;;;5028446;28;20190;-76
2023/01/23 03:47:08;;;;;;;0.80;0.80;;;-4.10;99.90;;;;;;5032738;28;20208;-76
2023/01/23 03:49:34;;;;;;;0.80;0.80;;;-4.00;99.90;;;;;;5035968;28;20205;-76
2023/01/23 03:52:01;;;;;;;0.80;0.80;;;-4.10;99.90;;;;;;5036391;28;20209;-76
2023/01/23 03:54:26;;;;;;;1.05;1.05;;;-4.20;99.90;;;;;;5035276;28;20675;-75
2023/01/23 03:56:52;;;;;;;0.80;0.80;;;-4.20;99.90;;;;;;5035586;28;20336;-76
2023/01/23 03:59:18;;;;;;;0.75;0.75;;;-4.20;99.90;;;;;;5035132;28;20577;-76
2023/01/23 04:01:44;;;;;;;0.77;0.77;;;-4.30;99.90;;;;;;5036814;28;20201;-76
2023/01/23 04:04:13;;;;;;;0.70;0.70;;;-4.20;99.90;;;;;;5038729;28;20229;-77
2023/01/23 04:06:39;;;;;;;0.80;0.80;;;-4.30;99.90;;;;;;5041331;28;20206;-76
2023/01/23 04:09:05;;;;;;;0.75;0.75;;;-4.30;99.90;;;;;;5042508;28;20208;-76
2023/01/23 04:11:31;;;;;;;0.70;0.70;;;-4.30;99.90;;;;;;5039211;28;20206;-76
2023/01/23 04:13:56;;;;;;;0.70;0.70;;;-4.30;99.90;;;;;;5035148;28;20203;-77
2023/01/23 04:16:22;;;;;;;0.80;0.80;;;-4.30;99.90;;;;;;5037136;28;20202;-77
2023/01/23 04:19:20;;;;;;;0.75;0.75;;;-4.20;99.90;;;;;;5033134;28;20202;-77
2023/01/23 04:22:15;;;;;;;0.80;0.80;;;-4.30;99.90;;;;;;5060095;28;20674;-75
2023/01/23 04:25:09;;;;;;;0.67;0.67;;;-4.30;99.90;;;;;;5059298;28;21047;-75
2023/01/23 04:34:35;;;;;;;0.90;0.90;;;-4.30;99.90;;;;;;5054386;28;20274;-76
2023/01/23 04:37:01;;;;;;;0.80;0.80;;;-4.30;99.90;;;;;;5033039;28;20627;-76
2023/01/23 04:46:40;;;;;;;0.80;0.80;;;-4.40;99.90;;;;;;4961259;29;20240;-77
2023/01/23 04:52:13;;;;;;;0.73;0.73;;;-4.40;99.90;;;;;;4996649;28;20898;-78
2023/01/23 04:55:10;;;;;;;0.80;0.80;;;-4.30;99.90;;;;;;4967488;28;20221;-77
2023/01/23 05:11:33;;;;;;;0.70;0.70;;;-4.30;99.90;;;;;;4935059;29;20673;-76
2023/01/23 05:17:21;;;;;;;0.80;0.80;;;-4.20;99.90;;;;;;4921171;28;20237;-75
2023/01/23 05:34:07;;;;;;;0.73;0.73;;;-4.10;99.90;;;;;;4943712;29;20435;-78
2023/01/23 05:46:51;;;;;;;0.73;0.73;;;-4.10;99.90;;;;;;4942144;29;20248;-75
2023/01/23 05:49:17;;;;;;;0.70;0.70;;;-4.10;99.90;;;;;;4969718;28;20711;-77
2023/01/23 05:51:43;;;;;;;0.70;0.70;;;-4.10;99.90;;;;;;4937847;29;20240;-76
2023/01/23 05:54:09;;;;;;;0.80;0.80;;;-4.10;99.90;;;;;;4938626;28;20709;-77
2023/01/23 05:56:35;;;;;;;0.75;0.75;;;-4.10;99.90;;;;;;4953566;28;20212;-77
2023/01/23 05:59:02;;;;;;;0.73;0.73;;;-4.10;99.90;;;;;;4962120;28;20200;-77
2023/01/23 06:01:28;;;;;;;0.77;0.77;;;-4.10;99.90;;;;;;5009567;28;20242;-76
2023/01/23 06:03:54;;;;;;;0.80;0.80;;;-4.10;99.90;;;;;;5030121;28;20739;-76
2023/01/23 06:06:19;;;;;;;0.90;0.90;;;-4.10;99.90;;;;;;5015812;28;20202;-76
2023/01/23 06:08:45;;;;;;;0.70;0.70;;;-4.10;99.90;;;;;;5033869;28;20656;-77
2023/01/23 06:11:11;;;;;;;0.70;0.70;;;-4.10;99.90;;;;;;5033394;28;20213;-77
2023/01/23 06:13:39;;;;;;;0.80;0.80;;;-4.10;99.90;;;;;;5033695;28;20198;-77
2023/01/23 06:16:06;;;;;;;0.70;0.70;;;-4.20;99.90;;;;;;5032642;28;20252;-78
2023/01/23 06:18:51;;;;;;;0.80;0.80;;;-4.20;99.90;;;;;;5034744;28;20205;-79
2023/01/23 06:21:17;;;;;;;0.80;0.80;;;-4.30;99.90;;;;;;5035864;28;20611;-76
2023/01/23 06:23:45;;;;;;;0.70;0.70;;;-4.30;99.90;;;;;;5036933;28;20209;-75
2023/01/23 06:26:13;;;;;;;0.73;0.73;;;-4.20;99.90;;;;;;5035200;28;20202;-77
2023/01/23 06:28:39;;;;;;;0.70;0.70;;;-4.20;99.90;;;;;;5035352;28;20202;-77
2023/01/23 06:31:07;;;;;;;0.77;0.77;;;-4.20;99.90;;;;;;5033295;28;20226;-77
2023/01/23 06:33:37;;;;;;;0.80;0.80;;;-4.10;99.90;;;;;;5016736;28;20567;-77
2023/01/23 06:36:04;;;;;;;0.70;0.70;;;-4.10;99.90;;;;;;5014730;28;20213;-77
2023/01/23 06:38:31;;;;;;;0.77;0.77;;;-4.10;99.90;;;;;;5029814;28;20205;-76
2023/01/23 06:40:57;;;;;;;0.80;0.80;;;-4.20;99.90;;;;;;5012901;28;20290;-77
2023/01/23 06:43:23;;;;;;;0.75;0.75;;;-4.20;99.90;;;;;;5016245;28;20338;-77
2023/01/23 06:45:49;;;;;;;0.70;0.70;;;-4.30;99.90;;;;;;5036616;28;20221;-78
2023/01/23 06:48:15;;;;;;;0.70;0.70;;;-4.20;99.90;;;;;;5032168;28;20619;-76
2023/01/23 06:50:42;;;;;;;0.77;0.77;;;-4.20;99.90;;;;;;5029875;28;20230;-77
2023/01/23 06:53:12;;;;;;;0.80;0.80;;;-4.20;99.90;;;;;;5011828;28;20305;-77
2023/01/23 06:55:39;;;;;;;0.80;0.80;;;-4.20;99.90;;;;;;5022484;28;20643;-77
2023/01/23 06:58:06;;;;;;;0.98;0.98;;;-4.10;99.90;;;;;;5031204;28;20220;-77
2023/01/23 07:00:33;;;;;;;0.80;0.80;;;-4.10;99.90;;;;;;5033046;28;20194;-77
2023/01/23 07:03:02;;;;;;;0.80;0.80;;;-4.10;99.90;;;;;;5026678;28;20231;-77
2023/01/23 07:05:34;;;;;;;0.75;0.75;;;-4.10;99.90;;;;;;5013333;28;20289;-76
2023/01/23 07:08:01;;;;;;;0.70;0.70;;;-4.10;99.90;;;;;;5013155;28;20198;-78
2023/01/23 07:10:27;;;;;;;0.80;0.80;;;-4.00;99.90;;;;;;5014632;28;20566;-79
2023/01/23 07:12:52;;;;;;;0.80;0.80;;;-4.00;99.90;;;;;;5019412;28;20199;-78
2023/01/23 07:15:21;;;;;;;0.80;0.80;;;-4.00;99.90;;;;;;5013032;28;20245;-78
2023/01/23 07:24:47;;;;;;;0.80;0.80;;;-4.00;99.90;;;;;;4973727;28;20246;-77
2023/01/23 07:38:16;;;;;;;0.80;0.80;;;-4.00;99.90;;;;;;4918421;29;20333;-77
2023/01/23 07:40:43;;;;;;;0.80;0.80;;;-3.90;99.90;;;;;;4915259;29;20198;-77
2023/01/23 07:44:03;;;;;;;0.73;0.73;;;-3.90;99.90;;;;;;4935693;29;20336;-77
2023/01/23 07:50:47;;;;;;;0.80;0.80;;;-3.80;99.90;;;;;;4880941;29;20241;-77
2023/01/23 07:56:54;;;;;;;0.80;0.80;;;-3.80;99.90;;;;;;4838366;29;20224;-78
2023/01/23 08:00:08;;;;;;;0.70;0.70;;;-3.70;99.90;;;;;;4786489;29;20224;-78
2023/01/23 08:03:00;;;;;;;0.77;0.77;;;-3.60;99.90;;;;;;4789151;29;20222;-76
2023/01/23 08:16:21;;;;;;;0.70;0.70;;;-3.50;99.90;;;;;;4829815;29;20308;-79
2023/01/23 08:19:36;;;;;;;0.70;0.70;;;-3.40;99.90;;;;;;4831030;29;20214;-76
2023/01/23 08:29:37;;;;;;;0.70;0.70;;;-3.20;99.90;;;;;;4885932;29;20200;-77
2023/01/23 08:36:22;;;;;;;0.80;0.80;;;-3.10;99.90;;;;;;4939411;29;20265;-77
2023/01/23 08:42:55;;;;;;;0.88;0.88;;;-2.90;99.90;;;;;;4938916;29;20211;-77
2023/01/23 08:45:21;;;;;;;0.80;0.80;;;-2.90;99.90;;;;;;4930629;29;20261;-76
2023/01/23 08:47:47;;;;;;;0.80;0.80;;;-2.80;99.90;;;;;;4943887;28;20268;-78
2023/01/23 08:50:13;;;;;;;0.80;0.80;;;-2.80;99.90;;;;;;4955534;29;20620;-76
2023/01/23 08:52:39;;;;;;;0.70;0.70;;;-2.80;99.90;;;;;;4955537;29;20334;-76
2023/01/23 08:55:05;;;;;;;0.80;0.80;;;-2.70;99.90;;;;;;4953324;29;20220;-77
2023/01/23 08:57:31;;;;;;;0.80;0.80;;;-2.70;99.90;;;;;;4935586;29;20198;-77
2023/01/23 08:59:57;;;;;;;0.70;0.70;;;-2.70;99.90;;;;;;4935428;29;20298;-77
2023/01/23 09:02:22;;;;;;;0.70;0.70;;;-2.60;99.90;;;;;;4935659;29;20225;-77
2023/01/23 09:04:49;;;;;;;0.75;0.75;;;-2.50;99.90;;;;;;4935836;29;20202;-77
2023/01/23 09:11:28;;;;;;;0.73;0.73;;;-2.50;99.90;;;;;;4942677;29;20377;-76
2023/01/23 09:14:19;;;;;;;0.80;0.80;;;-2.40;99.90;;;;;;4981721;28;20308;-79
2023/01/23 09:20:40;;;;;;;0.70;0.70;;;-2.30;99.90;;;;;;4989926;28;20180;-80
2023/01/23 09:33:23;;;;;;;0.70;0.70;;;-2.10;99.90;;;;;;4937448;29;20593;-76
2023/01/23 09:35:52;;;;;;;0.82;0.82;;;-2.10;99.90;;;;;;4951492;29;20244;-76
2023/01/23 09:38:18;;;;;;;0.85;0.85;;;-2.00;99.90;;;;;;4962120;28;20542;-78
2023/01/23 09:41:39;;;;;;;1.00;1.00;;;-2.00;99.90;;;;;;4961852;28;20821;-78
2023/01/23 09:47:53;;;;;;;0.80;0.80;;;-2.00;99.90;;;;;;4958183;28;20255;-78
2023/01/23 09:54:45;;;;;;;;;;;;;;;;;;;;;
2023/01/23 09:57:19;;;;;;;0.80;0.80;;;-1.80;99.90;;;;;;4959099;29;20811;-77
2023/01/23 10:00:09;;;;;;;0.68;0.68;;;-1.80;99.90;;;;;;4969605;28;20200;-77
2023/01/23 10:02:35;;;;;;;0.75;0.75;;;-1.80;99.90;;;;;;4969366;28;20292;-77
2023/01/23 10:15:58;;;;;;;2.78;1.20;;;-1.70;99.90;;;;;;5016361;28;20217;-76
2023/01/23 10:29:38;;;;;;;0.90;0.85;;;-1.80;99.90;;;;;;4960324;29;20227;-76
2023/01/23 10:32:46;;;;;;;0.70;0.70;;;-1.70;99.90;;;;;;4896953;29;20243;-80
2023/01/23 10:42:27;;;;;;;0.70;0.70;;;-1.70;99.90;;;;;;4827286;29;20217;-77
2023/01/23 11:10:25;;;;;;;0.60;0.60;;;-1.50;99.90;;;;;;4789801;29;20730;-78
2023/01/23 11:38:12;;;;;;;0.70;0.70;;;-1.30;99.90;;;;;;4902546;29;20223;-76
2023/01/23 11:40:38;;;;;;;0.77;0.77;;;-1.40;99.90;;;;;;4979239;28;20282;-78
2023/01/23 11:44:15;;;;;;;0.65;0.65;;;-1.30;99.90;;;;;;4989927;28;20277;-79
2023/01/23 12:17:39;;;;;;;0.75;0.75;;;-1.20;99.90;;;;;;4906725;29;20275;-75
2023/01/23 12:23:36;;;;;;;0.70;0.70;;;-1.20;99.90;;;;;;4905270;29;20238;-77
2023/01/23 12:26:15;;;;;;;0.60;0.60;;;-1.20;99.90;;;;;;4912859;29;20201;-78
2023/01/23 12:29:21;;;;;;;0.80;0.80;;;-1.10;99.90;;;;;;4958906;28;20271;-77
2023/01/23 12:32:36;;;;;;;0.68;0.68;;;-1.10;99.90;;;;;;4978002;28;20200;-77
2023/01/23 12:49:23;;;;;;;;;;;;;;;;;;;;;
2023/01/23 12:52:41;;;;;;;0.70;0.70;;;-1.10;99.90;;;;;;5004701;28;20309;-78
2023/01/23 13:13:05;;;;;;;0.80;0.80;;;-1.10;99.90;;;;;;4883685;29;20211;-78
2023/01/23 13:26:39;;;;;;;0.88;0.88;;;-1.00;99.90;;;;;;4896783;29;20271;-78
2023/01/23 13:33:28;;;;;;;0.80;0.80;;;-1.00;99.90;;;;;;4919635;29;20654;-77
2023/01/23 13:37:11;;;;;;;;;;;;;;;;;;;;;
2023/01/23 13:39:54;;;;;;;;;;;;;;;;;;;;;
2023/01/23 13:45:35;;;;;;;0.70;0.70;;;-1.00;99.90;;;;;;4907862;29;20217;-77
2023/01/23 13:51:29;;;;;;;0.60;0.60;;;-1.00;99.90;;;;;;5017522;28;20229;-77
2023/01/23 13:57:21;;;;;;;0.70;0.70;;;-1.00;99.90;;;;;;4991111;28;20249;-77
2023/01/23 13:59:52;;;;;;;1.45;1.35;;;-1.00;99.90;;;;;;4997944;28;20602;-78
2023/01/23 14:13:05;;;;;;;0.73;0.73;;;-0.90;99.90;;;;;;4999293;28;20203;-78
2023/01/23 14:45:05;;;;;;;0.63;0.63;;;-0.90;99.90;;;;;;5052447;28;20236;-79
2023/01/23 15:11:10;;;;;;;0.80;0.80;;;-0.90;99.90;;;;;;4861800;29;20208;-78
2023/01/23 15:13:49;;;;;;;0.85;0.85;;;-0.90;99.90;;;;;;4873628;29;20203;-78
2023/01/23 15:17:37;;;;;;;0.80;0.80;;;-0.80;99.90;;;;;;4882294;29;20722;-78
2023/01/23 15:40:17;;;;;;;0.75;0.75;;;-0.80;99.90;;;;;;4947215;29;20610;-75
2023/01/23 15:49:28;;;;;;;0.60;0.60;;;-0.70;99.90;;;;;;4937158;29;20671;-75
2023/01/23 15:51:55;;;;;;;0.60;0.60;;;-0.70;99.90;;;;;;4963302;28;20204;-75
2023/01/23 15:54:27;;;;;;;0.70;0.70;;;-0.70;99.90;;;;;;4991220;28;20230;-75
2023/01/23 15:56:53;;;;;;;1.77;1.55;;;-0.70;99.90;;;;;;5027506;28;20702;-75
2023/01/23 15:59:19;;;;;;;0.60;0.60;;;-0.60;99.90;;;;;;5011286;28;20277;-75
2023/01/23 16:01:45;;;;;;;0.68;0.68;;;-0.60;99.90;;;;;;5012520;28;20187;-76
2023/01/23 16:04:11;;;;;;;0.60;0.60;;;-0.60;99.90;;;;;;5012646;28;20213;-75
2023/01/23 16:06:38;;;;;;;0.70;0.70;;;-0.60;99.90;;;;;;5010685;28;20245;-76
2023/01/23 16:09:04;;;;;;;0.75;0.75;;;-0.60;99.90;;;;;;5027388;28;20260;-75
2023/01/23 16:11:33;;;;;;;0.70;0.70;;;-0.60;99.90;;;;;;5010723;28;20218;-74
2023/01/23 16:14:02;;;;;;;0.65;0.65;;;-0.70;99.90;;;;;;5004382;28;20199;-76
2023/01/23 16:16:28;;;;;;;0.90;0.90;;;-0.60;99.90;;;;;;4992804;28;20277;-76
2023/01/23 16:18:54;;;;;;;0.70;0.70;;;-0.60;99.90;;;;;;5026744;28;20256;-75
2023/01/23 16:21:26;;;;;;;0.50;0.50;;;-0.60;99.90;;;;;;5031032;28;20194;-76
2023/01/23 16:23:52;;;;;;;0.60;0.60;;;-0.60;99.90;;;;;;5032725;28;20222;-75
2023/01/23 16:26:20;;;;;;;0.60;0.60;;;-0.60;99.90;;;;;;5037930;28;20669;-76
2023/01/23 16:29:33;;;;;;;0.70;0.70;;;-0.50;99.90;;;;;;5054997;28;20201;-76
2023/01/23 16:32:02;;;;;;;0.75;0.75;;;-0.50;99.90;;;;;;5037208;28;20205;-76
2023/01/23 16:34:27;;;;;;;0.77;0.77;;;-0.60;99.90;;;;;;5051454;28;20202;-75
2023/01/23 16:36:57;;;;;;;0.80;0.80;;;-0.50;99.90;;;;;;5034158;28;20205;-75
2023/01/23 16:39:25;;;;;;;0.93;0.93;;;-0.50;99.90;;;;;;5051325;28;20560;-76
2023/01/23 16:41:55;;;;;;;0.50;0.50;;;-0.50;99.90;;;;;;5055588;28;20192;-77
2023/01/23 16:44:22;;;;;;;0.63;0.63;;;-0.50;99.90;;;;;;5058174;28;20205;-76
2023/01/23 16:47:29;;;;;;;0.70;0.70;;;-0.50;99.90;;;;;;5041036;28;20206;-77
2023/01/23 16:49:55;;;;;;;0.70;0.70;;;-0.50;99.90;;;;;;5058788;28;20288;-76
2023/01/23 16:52:23;;;;;;;0.75;0.75;;;-0.50;99.90;;;;;;5039595;28;20237;-76
2023/01/23 16:54:52;;;;;;;0.70;0.70;;;-0.50;99.90;;;;;;5038857;28;20210;-76
2023/01/23 16:57:19;;;;;;;0.60;0.60;;;-0.40;99.90;;;;;;5038234;28;20243;-77
2023/01/23 16:59:46;;;;;;;0.60;0.60;;;-0.50;99.90;;;;;;5056220;28;20272;-75
2023/01/23 17:02:26;;;;;;;0.80;0.80;;;-0.50;99.90;;;;;;5038298;28;20726;-76
2023/01/23 17:04:52;;;;;;;0.88;0.88;;;-0.50;99.90;;;;;;5038291;28;20197;-76
2023/01/23 17:07:18;;;;;;;0.77;0.77;;;-0.50;99.90;;;;;;5057791;28;20387;-75
2023/01/23 17:09:45;;;;;;;0.85;0.82;;;-0.50;99.90;;;;;;5040600;28;20667;-76
2023/01/23 17:12:46;;;;;;;0.70;0.70;;;-0.50;99.90;;;;;;5040695;28;20205;-76
2023/01/23 17:15:25;;;;;;;0.50;0.50;;;-0.50;99.90;;;;;;5038917;28;20231;-75
2023/01/23 17:17:54;;;;;;;0.70;0.70;;;-0.50;99.90;;;;;;5034652;28;20578;-75
2023/01/23 17:20:20;;;;;;;0.70;0.70;;;-0.50;99.90;;;;;;5035582;28;20620;-75
2023/01/23 17:22:47;;;;;;;0.80;0.80;;;-0.50;99.90;;;;;;5038168;28;20198;-78
2023/01/23 17:25:34;;;;;;;0.80;0.80;;;-0.50;99.90;;;;;;5044215;28;20224;-78
2023/01/23 17:28:00;;;;;;;0.63;0.63;;;-0.50;99.90;;;;;;5038626;28;20304;-78
2023/01/23 17:30:36;;;;;;;0.80;0.80;;;-0.50;99.90;;;;;;5063116;28;20225;-78
2023/01/23 17:33:02;;;;;;;0.50;0.50;;;-0.50;99.90;;;;;;5041330;28;20224;-76
2023/01/23 17:35:35;;;;;;;0.60;0.60;;;-0.50;99.90;;;;;;5036785;28;20421;-75
2023/01/23 17:38:02;;;;;;;0.70;0.70;;;-0.50;99.90;;;;;;5037611;28;20198;-76
2023/01/23 17:41:00;;;;;;;0.90;0.90;;;-0.30;99.90;;;;;;5055195;28;20197;-79
2023/01/23 17:46:47;;;;;;;0.50;0.50;;;-0.30;99.90;;;;;;5057176;28;20232;-77
2023/01/23 17:52:30;;;;;;;0.60;0.60;;;-0.40;99.90;;;;;;5054109;28;20283;-76
2023/01/23 17:54:58;;;;;;;1.65;1.55;;;-0.40;99.90;;;;;;5055005;28;20268;-77
2023/01/23 17:57:24;;;;;;;0.90;0.90;;;-0.40;99.90;;;;;;5036335;28;20645;-76
2023/01/23 17:59:50;;;;;;;0.60;0.60;;;-0.40;99.90;;;;;;5036875;28;20516;-77
2023/01/23 18:02:25;;;;;;;1.13;1.08;;;-0.40;99.90;;;;;;5054628;28;20596;-77
2023/01/23 18:04:50;;;;;;;0.90;0.90;;;-0.40;99.90;;;;;;5054950;28;20199;-77
2023/01/23 18:07:19;;;;;;;0.70;0.70;;;-0.40;99.90;;;;;;5055343;28;20635;-78
2023/01/23 18:09:46;;;;;;;0.70;0.70;;;-0.40;99.90;;;;;;5036660;28;20271;-76
2023/01/23 18:12:36;;;;;;;0.60;0.60;;;-0.40;99.90;;;;;;5054872;28;20202;-77
2023/01/23 18:15:12;;;;;;;0.65;0.65;;;-0.40;99.90;;;;;;5037619;28;20235;-75
2023/01/23 18:17:46;;;;;;;0.70;0.70;;;-0.40;99.90;;;;;;5035156;28;20205;-76
2023/01/23 18:20:17;;;;;;;0.70;0.70;;;-0.40;99.90;;;;;;5055285;28;20211;-76
2023/01/23 18:22:43;;;;;;;0.70;0.70;;;-0.40;99.90;;;;;;5037992;28;20272;-76
2023/01/23 18:25:14;;;;;;;0.80;0.80;;;-0.40;99.90;;;;;;5054316;28;20671;-76
2023/01/23 18:31:14;;;;;;;0.70;0.70;;;-0.40;99.90;;;;;;5054452;28;20212;-76
2023/01/23 18:34:00;;;;;;;0.65;0.65;;;-0.50;99.90;;;;;;5054565;28;20249;-75
2023/01/23 18:36:46;;;;;;;0.60;0.60;;;-0.50;99.90;;;;;;5053775;28;20424;-76
2023/01/23 18:39:30;;;;;;;0.70;0.70;;;-0.50;99.90;;;;;;5013447;28;20205;-77
2023/01/23 18:42:17;;;;;;;0.60;0.60;;;-0.40;99.90;;;;;;5036966;28;20544;-80
2023/01/23 18:45:24;;;;;;;0.50;0.50;;;-0.50;99.90;;;;;;5022249;28;20202;-77
2023/01/23 18:47:50;;;;;;;0.68;0.68;;;-0.50;99.90;;;;;;5000779;28;20562;-78
2023/01/23 18:50:17;;;;;;;0.70;0.70;;;-0.50;99.90;;;;;;5034481;28;20553;-77
2023/01/23 18:53:17;;;;;;;0.95;0.95;;;-0.50;99.90;;;;;;5034100;28;20198;-77
2023/01/23 18:56:13;;;;;;;0.70;0.70;;;-0.50;99.90;;;;;;5015941;28;20221;-78
2023/01/23 18:58:56;;;;;;;0.70;0.70;;;-0.50;99.90;;;;;;5048881;28;20198;-79
2023/01/23 19:01:41;;;;;;;0.70;0.70;;;-0.50;99.90;;;;;;5033909;28;20590;-74
2023/01/23 19:04:17;;;;;;;1.15;1.05;;;-0.50;99.90;;;;;;5034962;28;20194;-75
2023/01/23 19:06:46;;;;;;;0.68;0.68;;;-0.50;99.90;;;;;;5025895;28;20288;-78
2023/01/23 19:09:19;;;;;;;0.75;0.75;;;-0.50;99.90;;;;;;5053895;28;20193;-75
2023/01/23 19:11:55;;;;;;;0.70;0.70;;;-0.50;99.90;;;;;;5053801;28;20186;-76
2023/01/23 19:14:20;;;;;;;0.63;0.63;;;-0.50;99.90;;;;;;5047869;28;20189;-76
2023/01/23 19:16:56;;;;;;;0.80;0.80;;;-0.60;99.90;;;;;;5034936;28;20259;-77
2023/01/23 19:19:54;;;;;;;0.60;0.60;;;-0.50;99.90;;;;;;5038897;28;20200;-79
2023/01/23 19:23:00;;;;;;;0.80;0.80;;;-0.50;99.90;;;;;;5032410;28;20202;-78
2023/01/23 19:25:27;;;;;;;0.60;0.60;;;-0.50;99.90;;;;;;5012895;28;20236;-76
2023/01/23 19:27:57;;;;;;;0.70;0.70;;;-0.50;99.90;;;;;;5035749;28;20235;-76
2023/01/23 19:30:25;;;;;;;0.70;0.70;;;-0.50;99.90;;;;;;5036141;28;20244;-77
2023/01/23 19:32:51;;;;;;;0.60;0.60;;;-0.40;99.90;;;;;;5036363;28;20201;-77
2023/01/23 19:35:17;;;;;;;0.70;0.70;;;-0.50;99.90;;;;;;5035222;28;20240;-77
2023/01/23 19:37:44;;;;;;;0.70;0.70;;;-0.50;99.90;;;;;;5053620;28;20216;-77
2023/01/23 19:40:14;;;;;;;0.70;0.70;;;-0.50;99.90;;;;;;5027056;28;20739;-77
2023/01/23 19:42:42;;;;;;;0.75;0.75;;;-0.50;99.90;;;;;;5014969;28;20194;-77
2023/01/23 19:45:16;;;;;;;3.85;1.80;;;-0.50;99.90;;;;;;5033112;28;20217;-77
2023/01/23 19:47:42;;;;;;;0.68;0.68;;;-0.50;99.90;;;;;;5052508;28;20200;-76
2023/01/23 19:50:14;;;;;;;0.68;0.68;;;-0.60;99.90;;;;;;5052514;28;20697;-77
2023/01/23 19:52:43;;;;;;;0.70;0.70;;;-0.50;99.90;;;;;;5052514;28;20197;-77
2023/01/23 19:55:31;;;;;;;0.70;0.70;;;-0.60;99.90;;;;;;5052224;28;20591;-77
2023/01/23 19:57:57;;;;;;;0.65;0.65;;;-0.50;99.90;;;;;;5034492;28;20213;-77
2023/01/23 20:00:24;;;;;;;0.93;0.93;;;-0.50;99.90;;;;;;5034423;28;20204;-76
2023/01/23 20:02:52;;;;;;;0.90;0.90;;;-0.50;99.90;;;;;;5034174;28;20201;-77
2023/01/23 20:05:18;;;;;;;0.65;0.65;;;-0.50;99.90;;;;;;5052705;28;20204;-77
2023/01/23 20:07:43;;;;;;;0.60;0.60;;;-0.60;99.90;;;;;;5052731;28;20284;-77
2023/01/23 20:10:14;;;;;;;0.70;0.70;;;-0.60;99.90;;;;;;5052951;28;20194;-78
2023/01/23 20:12:50;;;;;;;0.70;0.70;;;-0.60;99.90;;;;;;5052939;28;20201;-76
2023/01/23 20:15:18;;;;;;;0.60;0.60;;;-0.60;99.90;;;;;;5034762;28;20263;-77
2023/01/23 20:17:44;;;;;;;1.60;1.50;;;-0.60;99.90;;;;;;5055612;28;20198;-77
2023/01/23 20:20:10;;;;;;;0.70;0.70;;;-0.60;99.90;;;;;;5038571;28;20203;-77
2023/01/23 20:22:43;;;;;;;0.65;0.65;;;-0.60;99.90;;;;;;5055781;28;20600;-76
2023/01/23 20:25:11;;;;;;;0.80;0.80;;;-0.60;99.90;;;;;;5056047;28;20566;-77